Time;durP1;ratioP1;P1;durP2;ratioP2;P2;SDS_P1;SDS_P2;PMS_P1;PMS_P2;Temp;Humidity;BMP_temperature;BMP_pressure;BME280_temperature;BME280_humidity;BME280_pressure;Samples;Min_cycle;Max_cycle;Signal;HPM_P1;HPM_P2
2022/07/21 00:02:08;;;;;;;56.40;22.83;;;19.20;99.90;;;;;;5063407;28;20499;-68
2022/07/21 00:04:34;;;;;;;72.55;24.13;;;19.10;99.90;;;;;;5073286;28;20403;-67
2022/07/21 00:07:00;;;;;;;75.78;26.83;;;19.10;99.90;;;;;;5073840;28;20036;-68
2022/07/21 00:09:25;;;;;;;73.50;24.77;;;19.30;99.90;;;;;;5074038;28;20041;-68
2022/07/21 00:11:51;;;;;;;60.92;25.17;;;19.20;99.90;;;;;;5074228;28;20399;-68
2022/07/21 00:14:17;;;;;;;63.40;25.13;;;19.00;99.90;;;;;;5067754;28;20043;-68
2022/07/21 00:16:44;;;;;;;73.03;27.30;;;19.10;99.90;;;;;;5070429;28;20064;-67
2022/07/21 00:19:10;;;;;;;68.55;26.73;;;19.00;99.90;;;;;;5067154;28;20120;-67
2022/07/21 00:21:36;;;;;;;75.10;27.58;;;19.00;99.90;;;;;;5060298;28;20041;-67
2022/07/21 00:24:02;;;;;;;59.20;26.08;;;19.10;99.90;;;;;;5073938;28;20048;-68
2022/07/21 00:26:27;;;;;;;61.30;26.27;;;19.00;99.90;;;;;;5058616;28;20060;-68
2022/07/21 00:28:53;;;;;;;61.28;26.58;;;19.00;99.90;;;;;;5058733;28;20044;-68
2022/07/21 00:31:19;;;;;;;54.65;26.67;;;19.20;99.90;;;;;;5059754;28;20040;-68
2022/07/21 00:33:44;;;;;;;58.42;25.65;;;19.10;99.90;;;;;;5056878;28;20033;-68
2022/07/21 00:36:10;;;;;;;60.00;26.98;;;19.10;99.90;;;;;;5062818;28;20072;-69
2022/07/21 00:38:36;;;;;;;60.28;26.52;;;19.10;99.90;;;;;;5057349;28;20131;-71
2022/07/21 00:41:01;;;;;;;58.85;25.00;;;19.30;99.90;;;;;;5059134;28;20055;-69
2022/07/21 00:43:27;;;;;;;58.00;26.27;;;19.10;99.90;;;;;;5058386;28;20024;-71
2022/07/21 00:45:55;;;;;;;60.35;26.27;;;19.10;99.90;;;;;;5054185;28;20116;-71
2022/07/21 00:48:21;;;;;;;62.28;27.45;;;19.30;99.90;;;;;;5056788;28;20040;-71
2022/07/21 00:50:47;;;;;;;66.70;27.52;;;19.20;99.90;;;;;;5055978;28;20036;-71
2022/07/21 00:53:12;;;;;;;69.65;28.42;;;19.30;99.90;;;;;;5058605;28;20070;-72
2022/07/21 00:55:42;;;;;;;65.20;27.67;;;19.30;99.90;;;;;;5058984;28;20118;-71
2022/07/21 00:58:08;;;;;;;64.15;27.20;;;19.30;99.90;;;;;;5075186;28;20419;-72
2022/07/21 01:00:34;;;;;;;61.08;28.50;;;19.20;99.90;;;;;;5060626;28;20037;-72
2022/07/21 01:03:00;;;;;;;59.47;27.85;;;19.30;99.90;;;;;;5061756;28;20051;-72
2022/07/21 01:05:26;;;;;;;63.03;28.83;;;19.20;99.90;;;;;;5061087;28;20464;-74
2022/07/21 01:07:55;;;;;;;70.95;31.05;;;19.20;99.90;;;;;;5060215;28;20048;-74
2022/07/21 01:10:23;;;;;;;65.03;28.08;;;19.10;99.90;;;;;;5055244;28;20395;-74
2022/07/21 01:12:50;;;;;;;87.85;32.85;;;19.10;99.90;;;;;;5060928;28;20418;-72
2022/07/21 01:15:17;;;;;;;67.25;30.25;;;19.30;99.90;;;;;;5059871;28;20537;-73
2022/07/21 01:17:44;;;;;;;75.70;31.73;;;19.20;99.90;;;;;;5055579;28;20072;-74
2022/07/21 01:20:13;;;;;;;66.07;29.95;;;19.20;99.90;;;;;;5060540;28;20540;-74
2022/07/21 01:22:42;;;;;;;73.53;31.63;;;19.20;99.90;;;;;;5057895;28;20114;-73
2022/07/21 01:25:08;;;;;;;79.47;32.72;;;19.10;99.90;;;;;;5059753;28;20112;-75
2022/07/21 01:27:34;;;;;;;113.65;36.55;;;19.00;99.90;;;;;;5053812;28;20037;-73
2022/07/21 01:30:00;;;;;;;137.70;39.10;;;19.00;99.90;;;;;;5058553;28;20179;-72
2022/07/21 01:32:26;;;;;;;102.45;36.60;;;19.10;99.90;;;;;;5063580;28;20131;-74
2022/07/21 01:34:52;;;;;;;154.05;42.35;;;19.20;99.90;;;;;;5060109;28;20041;-73
2022/07/21 01:37:23;;;;;;;111.68;40.33;;;19.00;99.90;;;;;;5065265;28;20051;-72
2022/07/21 01:42:36;;;;;;;160.48;48.33;;;19.10;99.90;;;;;;5068692;28;20116;-71
2022/07/21 01:45:03;;;;;;;172.43;48.70;;;19.10;99.90;;;;;;5064416;28;20029;-70
2022/07/21 01:47:30;;;;;;;126.88;46.47;;;19.00;99.90;;;;;;5068198;28;20089;-70
2022/07/21 01:49:56;;;;;;;180.13;51.10;;;18.90;99.90;;;;;;5068334;28;20491;-70
2022/07/21 01:52:22;;;;;;;146.10;48.22;;;18.90;99.90;;;;;;5068846;28;21393;-71
2022/07/21 01:54:47;;;;;;;206.70;54.40;;;18.90;99.90;;;;;;5079354;28;20494;-71
2022/07/21 01:57:13;;;;;;;178.55;53.20;;;18.90;99.90;;;;;;5065222;28;20043;-71
2022/07/21 01:59:39;;;;;;;157.32;55.55;;;18.90;99.90;;;;;;5067375;28;20047;-71
2022/07/21 02:02:05;;;;;;;215.43;62.55;;;18.80;99.90;;;;;;5063420;28;20033;-71
2022/07/21 02:04:30;;;;;;;229.45;64.60;;;18.90;99.90;;;;;;5066940;28;20052;-71
2022/07/21 02:06:56;;;;;;;171.43;59.47;;;19.00;99.90;;;;;;5067894;28;20041;-71
2022/07/21 02:09:22;;;;;;;154.63;58.65;;;19.10;99.90;;;;;;5064008;28;20040;-71
2022/07/21 02:11:48;;;;;;;147.10;58.72;;;19.00;99.90;;;;;;5064401;28;20047;-71
2022/07/21 02:14:13;;;;;;;146.15;58.38;;;19.10;99.90;;;;;;5068561;28;20048;-71
2022/07/21 02:16:39;;;;;;;148.07;57.13;;;19.10;99.90;;;;;;5067823;28;20053;-72
2022/07/21 02:19:04;;;;;;;125.65;54.40;;;18.90;99.90;;;;;;5076133;28;20037;-72
2022/07/21 02:21:30;;;;;;;124.30;55.00;;;19.10;99.90;;;;;;5068181;28;20044;-73
2022/07/21 02:23:56;;;;;;;110.55;50.53;;;19.10;99.90;;;;;;5065642;28;20040;-72
2022/07/21 02:26:21;;;;;;;151.95;57.08;;;19.10;99.90;;;;;;5061904;28;20121;-72
2022/07/21 02:28:47;;;;;;;114.97;52.33;;;18.90;99.90;;;;;;5060399;28;20041;-71
2022/07/21 02:31:13;;;;;;;120.95;51.63;;;19.10;99.90;;;;;;5066186;28;20453;-71
2022/07/21 02:33:39;;;;;;;158.40;56.97;;;19.10;99.90;;;;;;5066227;28;20400;-72
2022/07/21 02:36:05;;;;;;;158.75;56.88;;;19.10;99.90;;;;;;5071747;28;20401;-72
2022/07/21 02:38:30;;;;;;;205.32;61.08;;;19.10;99.90;;;;;;5070949;28;20032;-71
2022/07/21 02:40:56;;;;;;;244.63;62.05;;;19.10;99.90;;;;;;5065630;28;20048;-71
2022/07/21 02:43:22;;;;;;;207.52;60.40;;;19.00;99.90;;;;;;5067055;28;20051;-71
2022/07/21 02:45:47;;;;;;;145.52;55.63;;;19.00;99.90;;;;;;5067209;28;20032;-71
2022/07/21 02:48:13;;;;;;;195.15;62.33;;;19.00;99.90;;;;;;5066351;28;20411;-71
2022/07/21 02:50:43;;;;;;;264.95;63.95;;;19.00;99.90;;;;;;5067552;28;20037;-71
2022/07/21 02:53:18;;;;;;;165.05;55.55;;;18.90;99.90;;;;;;5077989;28;20044;-72
2022/07/21 02:55:44;;;;;;;195.60;57.70;;;18.90;99.90;;;;;;5068584;28;20048;-71
2022/07/21 02:58:18;;;;;;;174.40;57.17;;;19.00;99.90;;;;;;5068933;28;20396;-71
2022/07/21 03:00:58;;;;;;;233.32;62.67;;;18.90;99.90;;;;;;5062575;28;20055;-71
2022/07/21 03:03:25;;;;;;;158.63;57.72;;;19.00;99.90;;;;;;5071488;28;20309;-72
2022/07/21 03:05:51;;;;;;;209.52;63.55;;;18.90;99.90;;;;;;5056886;28;20492;-71
2022/07/21 03:08:18;;;;;;;197.13;63.47;;;19.00;99.90;;;;;;5060285;28;20051;-71
2022/07/21 03:10:44;;;;;;;202.10;65.05;;;19.10;99.90;;;;;;5063512;28;20037;-71
2022/07/21 03:13:10;;;;;;;272.83;73.72;;;18.90;99.90;;;;;;5067981;28;20102;-71
2022/07/21 03:15:35;;;;;;;243.38;72.32;;;19.10;99.90;;;;;;5062788;28;20040;-71
2022/07/21 03:18:01;;;;;;;254.63;74.70;;;19.00;99.90;;;;;;5069935;28;20041;-70
2022/07/21 03:20:29;;;;;;;287.83;77.50;;;19.10;99.90;;;;;;5068100;28;20040;-69
2022/07/21 03:22:55;;;;;;;231.07;72.57;;;18.90;99.90;;;;;;5066683;28;20352;-69
2022/07/21 03:25:21;;;;;;;201.52;70.82;;;18.90;99.90;;;;;;5065882;28;20093;-68
2022/07/21 03:27:47;;;;;;;189.23;68.18;;;19.20;99.90;;;;;;5059984;28;20043;-68
2022/07/21 03:30:14;;;;;;;196.15;67.45;;;19.20;99.90;;;;;;5064489;28;20096;-67
2022/07/21 03:32:40;;;;;;;224.38;73.72;;;19.10;99.90;;;;;;5068997;28;20040;-68
2022/07/21 03:35:08;;;;;;;294.48;75.60;;;19.10;99.90;;;;;;5067625;28;20195;-68
2022/07/21 03:37:43;;;;;;;283.35;74.53;;;19.00;99.90;;;;;;5068846;28;20462;-67
2022/07/21 03:40:11;;;;;;;195.77;69.70;;;19.10;99.90;;;;;;5068093;28;20056;-67
2022/07/21 03:42:37;;;;;;;309.38;76.10;;;19.00;99.90;;;;;;5069245;28;20422;-67
2022/07/21 03:45:03;;;;;;;240.45;70.07;;;18.90;99.90;;;;;;5066186;28;20107;-68
2022/07/21 03:47:29;;;;;;;218.43;67.72;;;18.90;99.90;;;;;;5059807;28;20667;-68
2022/07/21 03:49:54;;;;;;;218.52;70.90;;;18.90;99.90;;;;;;5067484;28;20041;-67
2022/07/21 03:52:20;;;;;;;264.45;70.72;;;18.80;99.90;;;;;;5067337;28;20083;-68
2022/07/21 03:54:45;;;;;;;153.00;59.58;;;19.00;99.90;;;;;;5066841;28;20235;-67
2022/07/21 03:57:11;;;;;;;177.52;60.70;;;19.00;99.90;;;;;;5068363;28;20032;-67
2022/07/21 03:59:36;;;;;;;146.75;57.55;;;18.90;99.90;;;;;;5069187;28;20496;-67
2022/07/21 04:02:02;;;;;;;234.70;66.10;;;18.90;99.90;;;;;;5064730;28;20033;-68
2022/07/21 04:04:28;;;;;;;148.18;59.53;;;18.90;99.90;;;;;;5061603;28;20264;-67
2022/07/21 04:06:54;;;;;;;247.20;66.88;;;18.70;99.90;;;;;;5058739;28;20047;-67
2022/07/21 04:09:19;;;;;;;190.18;60.40;;;18.70;99.90;;;;;;5063915;28;20478;-67
2022/07/21 04:11:45;;;;;;;186.23;61.30;;;18.80;99.90;;;;;;5066034;28;20094;-68
2022/07/21 04:14:11;;;;;;;211.70;63.45;;;18.70;99.90;;;;;;5064130;28;20177;-67
2022/07/21 04:16:36;;;;;;;191.23;60.25;;;18.70;99.90;;;;;;5061756;28;20471;-67
2022/07/21 04:19:02;;;;;;;181.60;61.58;;;18.90;99.90;;;;;;5066869;28;20103;-67
2022/07/21 04:21:27;;;;;;;218.43;63.88;;;18.80;99.90;;;;;;5061972;28;20082;-67
2022/07/21 04:23:53;;;;;;;149.40;61.03;;;18.90;99.90;;;;;;5069530;28;20036;-67
2022/07/21 04:26:20;;;;;;;289.17;69.43;;;18.70;99.90;;;;;;5069290;28;20058;-66
2022/07/21 04:28:45;;;;;;;292.73;69.47;;;18.90;99.90;;;;;;5063184;28;20032;-67
2022/07/21 04:31:11;;;;;;;130.30;56.13;;;18.80;99.90;;;;;;5054860;28;20419;-67
2022/07/21 04:33:36;;;;;;;153.77;58.42;;;19.00;99.90;;;;;;5056217;28;20044;-66
2022/07/21 04:36:02;;;;;;;243.35;68.40;;;18.80;99.90;;;;;;5061093;28;20471;-66
2022/07/21 04:38:28;;;;;;;190.52;62.63;;;19.00;99.90;;;;;;5067978;28;20116;-67
2022/07/21 04:40:53;;;;;;;238.03;68.30;;;19.00;99.90;;;;;;5059525;28;20048;-67
2022/07/21 04:43:19;;;;;;;229.85;65.30;;;19.00;99.90;;;;;;5054529;28;20070;-67
2022/07/21 04:45:44;;;;;;;195.35;65.60;;;19.10;99.90;;;;;;5061714;28;20037;-68
2022/07/21 04:48:10;;;;;;;147.55;56.88;;;18.90;99.90;;;;;;5064457;28;20044;-68
2022/07/21 04:50:39;;;;;;;203.32;65.53;;;19.00;99.90;;;;;;5072756;28;20395;-67
2022/07/21 04:53:04;;;;;;;193.70;63.10;;;18.90;99.90;;;;;;5073006;28;20040;-68
2022/07/21 04:55:30;;;;;;;220.40;66.45;;;19.00;99.90;;;;;;5052470;28;20521;-68
2022/07/21 04:57:58;;;;;;;299.85;74.47;;;19.30;99.90;;;;;;5053022;28;20049;-68
2022/07/21 05:00:24;;;;;;;148.30;60.97;;;19.30;99.90;;;;;;5054423;28;20116;-68
2022/07/21 05:02:51;;;;;;;164.70;63.47;;;19.40;99.90;;;;;;5055954;28;20041;-70
2022/07/21 05:05:17;;;;;;;230.50;66.30;;;19.50;99.90;;;;;;5074193;28;20037;-70
2022/07/21 05:07:42;;;;;;;198.05;64.95;;;19.30;99.90;;;;;;5065490;28;20043;-70
2022/07/21 05:10:11;;;;;;;147.50;58.88;;;19.50;99.90;;;;;;5062563;28;20040;-70
2022/07/21 05:12:37;;;;;;;136.40;56.47;;;19.40;99.90;;;;;;5063748;28;20131;-70
2022/07/21 05:15:04;;;;;;;128.93;54.80;;;19.40;99.90;;;;;;5072239;28;20107;-71
2022/07/21 05:17:43;;;;;;;137.88;56.95;;;19.50;99.90;;;;;;5072183;28;20372;-71
2022/07/21 05:20:10;;;;;;;127.10;55.30;;;19.40;99.90;;;;;;5076393;28;20749;-72
2022/07/21 05:22:36;;;;;;;117.57;52.00;;;19.40;99.90;;;;;;5055626;28;20041;-73
2022/07/21 05:25:02;;;;;;;113.47;51.03;;;19.40;99.90;;;;;;5059376;28;20040;-73
2022/07/21 05:27:28;;;;;;;103.28;48.45;;;19.50;99.90;;;;;;5049341;28;20166;-73
2022/07/21 05:29:54;;;;;;;114.68;49.83;;;19.60;99.90;;;;;;5054257;28;20052;-73
2022/07/21 05:32:20;;;;;;;106.55;47.92;;;19.30;99.90;;;;;;5059597;28;20037;-72
2022/07/21 05:34:46;;;;;;;117.15;49.80;;;19.50;99.90;;;;;;5059953;28;20032;-73
2022/07/21 05:37:11;;;;;;;127.95;51.47;;;19.30;99.90;;;;;;5063238;28;20059;-73
2022/07/21 05:39:37;;;;;;;118.55;48.63;;;19.40;99.90;;;;;;5065574;28;20064;-74
2022/07/21 05:42:03;;;;;;;123.22;48.60;;;19.20;99.90;;;;;;5059694;28;20037;-73
2022/07/21 05:44:28;;;;;;;109.18;47.67;;;19.30;99.90;;;;;;5068708;28;20475;-74
2022/07/21 05:46:54;;;;;;;136.98;51.15;;;19.40;99.90;;;;;;5060844;28;20064;-74
2022/07/21 05:49:19;;;;;;;123.18;49.17;;;19.30;99.90;;;;;;5060002;28;20430;-72
2022/07/21 05:51:45;;;;;;;122.60;49.17;;;19.20;99.90;;;;;;5067553;28;20033;-72
2022/07/21 05:54:11;;;;;;;127.55;50.67;;;19.30;99.90;;;;;;5066902;28;20040;-72
2022/07/21 05:56:36;;;;;;;121.40;47.83;;;19.00;99.90;;;;;;5065559;28;20064;-70
2022/07/21 05:59:02;;;;;;;109.43;48.72;;;19.20;99.90;;;;;;5067325;28;20075;-73
2022/07/21 06:01:27;;;;;;;113.22;49.33;;;19.10;99.90;;;;;;5066696;28;20077;-72
2022/07/21 06:03:53;;;;;;;108.60;47.53;;;18.80;99.90;;;;;;5064352;28;20043;-71
2022/07/21 06:06:19;;;;;;;117.57;49.15;;;18.80;99.90;;;;;;5074883;28;20395;-71
2022/07/21 06:08:47;;;;;;;117.28;48.17;;;18.70;99.90;;;;;;5072136;28;20037;-71
2022/07/21 06:11:15;;;;;;;135.40;50.75;;;18.80;99.90;;;;;;5067338;28;20380;-71
2022/07/21 06:13:41;;;;;;;114.80;46.28;;;18.70;99.90;;;;;;5067059;28;20200;-71
2022/07/21 06:16:07;;;;;;;112.35;46.85;;;18.80;99.90;;;;;;5067349;28;20049;-72
2022/07/21 06:18:33;;;;;;;114.85;46.58;;;18.90;99.90;;;;;;5068767;28;20045;-72
2022/07/21 06:20:59;;;;;;;139.07;51.00;;;19.10;99.90;;;;;;5071033;28;20040;-72
2022/07/21 06:23:25;;;;;;;159.80;51.30;;;18.90;99.90;;;;;;5077516;28;20036;-72
2022/07/21 06:25:51;;;;;;;114.20;47.78;;;18.90;99.90;;;;;;5069471;28;20474;-72
2022/07/21 06:28:17;;;;;;;129.45;49.60;;;19.30;99.90;;;;;;5053054;28;20472;-72
2022/07/21 06:30:43;;;;;;;146.13;51.42;;;19.30;99.90;;;;;;5062277;28;20097;-73
2022/07/21 06:33:09;;;;;;;128.65;49.63;;;19.20;99.90;;;;;;5069485;28;20032;-72
2022/07/21 06:35:34;;;;;;;138.38;51.15;;;19.50;99.90;;;;;;5070961;28;20028;-73
2022/07/21 06:38:00;;;;;;;136.25;50.80;;;19.30;99.90;;;;;;5071478;28;20043;-73
2022/07/21 06:40:26;;;;;;;133.52;49.70;;;19.60;99.90;;;;;;5070191;28;20036;-72
2022/07/21 06:42:52;;;;;;;143.23;51.03;;;19.60;99.90;;;;;;5064314;28;20339;-72
2022/07/21 06:45:17;;;;;;;146.60;52.85;;;19.70;99.90;;;;;;5073375;28;20044;-72
2022/07/21 06:47:43;;;;;;;135.80;50.85;;;19.40;99.90;;;;;;5070227;28;20040;-73
2022/07/21 06:50:10;;;;;;;132.38;51.10;;;19.60;99.90;;;;;;5062901;28;20040;-73
2022/07/21 06:52:36;;;;;;;137.25;53.50;;;19.40;99.90;;;;;;5065179;28;20482;-72
2022/07/21 06:55:04;;;;;;;151.73;53.75;;;19.70;99.90;;;;;;5077157;28;20119;-73
2022/07/21 06:57:30;;;;;;;130.52;51.28;;;19.50;99.90;;;;;;5073805;28;20351;-72
2022/07/21 06:59:55;;;;;;;136.50;52.35;;;19.70;99.90;;;;;;5073918;28;20115;-72
2022/07/21 07:02:21;;;;;;;144.30;54.00;;;19.60;99.90;;;;;;5074126;28;20048;-72
2022/07/21 07:04:46;;;;;;;138.57;52.00;;;19.80;99.90;;;;;;5065105;28;20455;-72
2022/07/21 07:07:12;;;;;;;131.60;52.65;;;19.80;99.90;;;;;;5071432;28;20041;-72
2022/07/21 07:09:38;;;;;;;133.23;52.45;;;19.90;99.90;;;;;;5072239;28;20326;-72
2022/07/21 07:12:05;;;;;;;140.73;53.83;;;19.70;99.90;;;;;;5073278;28;20467;-72
2022/07/21 07:14:31;;;;;;;137.55;54.10;;;19.80;99.90;;;;;;5058395;28;20045;-72
2022/07/21 07:16:57;;;;;;;141.70;52.92;;;19.90;99.90;;;;;;5072250;28;20044;-73
2022/07/21 07:19:23;;;;;;;131.40;52.85;;;20.10;99.90;;;;;;5054302;28;20084;-72
2022/07/21 07:21:49;;;;;;;145.90;55.13;;;20.20;99.90;;;;;;5069916;28;20052;-72
2022/07/21 07:24:14;;;;;;;147.27;54.78;;;20.00;99.90;;;;;;5070549;28;20042;-72
2022/07/21 07:26:40;;;;;;;136.75;52.90;;;20.00;99.90;;;;;;5069604;28;20609;-72
2022/07/21 07:29:06;;;;;;;139.48;54.03;;;20.20;99.90;;;;;;5066761;28;20032;-72
2022/07/21 07:31:32;;;;;;;138.80;54.13;;;20.20;99.90;;;;;;5071786;28;20045;-72
2022/07/21 07:33:57;;;;;;;138.23;54.95;;;20.20;99.90;;;;;;5071805;28;20074;-72
2022/07/21 07:36:28;;;;;;;144.27;55.13;;;20.10;99.90;;;;;;5071091;28;20074;-71
2022/07/21 07:38:54;;;;;;;144.02;54.88;;;20.20;99.90;;;;;;5051698;28;20041;-71
2022/07/21 07:41:21;;;;;;;147.23;55.33;;;20.20;99.90;;;;;;5052641;28;20098;-71
2022/07/21 07:43:47;;;;;;;140.82;55.22;;;20.10;99.90;;;;;;5056207;28;20109;-72
2022/07/21 07:46:13;;;;;;;151.38;58.63;;;20.20;99.90;;;;;;5051057;28;20037;-72
2022/07/21 07:48:41;;;;;;;145.25;58.72;;;20.30;99.90;;;;;;5034503;28;20108;-75
2022/07/21 07:51:07;;;;;;;147.60;59.90;;;20.40;99.90;;;;;;5052805;28;20763;-74
2022/07/21 07:53:35;;;;;;;149.82;59.13;;;20.70;99.90;;;;;;5053195;28;20045;-70
2022/07/21 07:56:01;;;;;;;144.73;59.38;;;21.00;99.90;;;;;;5051062;28;20044;-73
2022/07/21 07:58:27;;;;;;;153.35;61.45;;;21.20;99.90;;;;;;5055340;28;20062;-73
2022/07/21 08:00:53;;;;;;;149.70;59.78;;;21.30;99.90;;;;;;5071273;28;20486;-73
2022/07/21 08:03:19;;;;;;;145.85;58.42;;;21.40;99.90;;;;;;5070901;28;20053;-74
2022/07/21 08:05:46;;;;;;;146.35;60.22;;;21.30;99.90;;;;;;5071758;28;20086;-74
2022/07/21 08:08:12;;;;;;;148.23;58.58;;;21.10;99.90;;;;;;5070645;28;20205;-73
2022/07/21 08:10:38;;;;;;;156.35;62.13;;;20.90;99.90;;;;;;5071828;28;20037;-73
2022/07/21 08:13:03;;;;;;;147.48;59.95;;;20.90;99.90;;;;;;5071381;28;20052;-74
2022/07/21 08:15:29;;;;;;;145.13;59.50;;;20.70;99.90;;;;;;5062337;28;20419;-72
2022/07/21 08:17:55;;;;;;;143.07;59.30;;;20.60;99.90;;;;;;5067663;28;20466;-73
2022/07/21 08:20:20;;;;;;;149.93;59.42;;;20.60;99.90;;;;;;5067587;28;20083;-70
2022/07/21 08:22:46;;;;;;;154.07;61.75;;;20.60;99.90;;;;;;5067920;28;20049;-72
2022/07/21 08:25:11;;;;;;;156.35;61.35;;;20.70;99.90;;;;;;5052083;28;20492;-71
2022/07/21 08:27:39;;;;;;;160.20;61.40;;;21.00;99.90;;;;;;5069420;28;20041;-73
2022/07/21 08:30:05;;;;;;;167.35;63.35;;;21.10;99.90;;;;;;5051878;28;20087;-77
2022/07/21 08:32:31;;;;;;;169.00;61.80;;;21.00;99.90;;;;;;5050678;28;20049;-73
2022/07/21 08:34:56;;;;;;;160.52;61.88;;;21.10;99.90;;;;;;5049321;28;20380;-73
2022/07/21 08:37:22;;;;;;;178.20;64.15;;;21.10;99.90;;;;;;5066055;28;20036;-71
2022/07/21 08:39:47;;;;;;;172.30;63.70;;;21.10;99.90;;;;;;5063674;28;20036;-70
2022/07/21 08:42:14;;;;;;;163.40;61.30;;;21.20;99.90;;;;;;5054517;28;20097;-74
2022/07/21 08:44:40;;;;;;;163.40;61.33;;;21.20;99.90;;;;;;5070323;28;20040;-70
2022/07/21 08:47:06;;;;;;;156.07;59.47;;;21.40;99.90;;;;;;5070769;28;20029;-72
2022/07/21 08:49:34;;;;;;;155.68;57.67;;;21.40;99.90;;;;;;5066311;28;20237;-71
2022/07/21 08:51:59;;;;;;;163.80;61.45;;;21.70;99.90;;;;;;5067963;28;20045;-75
2022/07/21 08:54:25;;;;;;;154.55;59.25;;;21.70;99.90;;;;;;5075956;28;20067;-72
2022/07/21 08:56:51;;;;;;;139.63;54.75;;;21.60;99.90;;;;;;5056936;28;20052;-72
2022/07/21 08:59:17;;;;;;;146.88;58.05;;;21.60;99.90;;;;;;5058549;28;20037;-76
2022/07/21 09:01:43;;;;;;;142.98;55.42;;;21.70;99.90;;;;;;5042573;28;20510;-74
2022/07/21 09:04:29;;;;;;;140.98;55.55;;;21.60;99.90;;;;;;5064777;28;20126;-73
2022/07/21 09:06:58;;;;;;;122.75;50.10;;;21.70;99.90;;;;;;5056624;28;20318;-76
2022/07/21 09:09:25;;;;;;;124.22;51.22;;;21.70;99.90;;;;;;5051940;28;20052;-69
2022/07/21 09:11:52;;;;;;;125.15;50.35;;;21.50;99.90;;;;;;5050405;28;20052;-75
2022/07/21 09:14:21;;;;;;;131.25;51.25;;;21.60;99.90;;;;;;5048800;28;20052;-76
2022/07/21 09:16:59;;;;;;;114.38;48.28;;;21.60;99.90;;;;;;5049363;28;20071;-71
2022/07/21 09:19:27;;;;;;;118.65;47.90;;;21.50;99.90;;;;;;5062440;28;20051;-74
2022/07/21 09:21:55;;;;;;;112.45;44.50;;;21.50;99.90;;;;;;5062903;28;20041;-74
2022/07/21 09:24:37;;;;;;;102.85;42.60;;;21.40;99.90;;;;;;5065912;28;20044;-75
2022/07/21 09:27:24;;;;;;;;;;;21.40;99.90;;;;;;5050034;28;20044;-71
2022/07/21 09:30:00;;;;;;;115.07;44.22;;;21.50;99.90;;;;;;5050344;28;20349;-72
2022/07/21 09:32:26;;;;;;;104.68;42.70;;;21.50;99.90;;;;;;5051645;28;20457;-73
2022/07/21 09:35:05;;;;;;;95.80;42.83;;;21.60;99.90;;;;;;5050651;28;20056;-76
2022/07/21 09:37:31;;;;;;;93.63;42.38;;;21.60;99.90;;;;;;5055127;28;20040;-75
2022/07/21 09:40:00;;;;;;;101.07;42.78;;;21.60;99.90;;;;;;5059147;28;20064;-71
2022/07/21 09:42:28;;;;;;;93.72;38.25;;;21.60;99.90;;;;;;5066992;28;20045;-75
2022/07/21 09:44:59;;;;;;;97.55;41.88;;;21.60;99.90;;;;;;5066791;28;20388;-74
2022/07/21 09:47:29;;;;;;;92.00;40.33;;;21.60;99.90;;;;;;5055131;28;20036;-76
2022/07/21 09:49:56;;;;;;;93.93;40.95;;;21.70;99.90;;;;;;5082798;28;20119;-73
2022/07/21 09:52:30;;;;;;;92.07;41.25;;;21.70;99.90;;;;;;5056175;28;20457;-74
2022/07/21 09:55:15;;;;;;;101.78;42.33;;;21.70;99.90;;;;;;5069234;28;20119;-75
2022/07/21 09:57:42;;;;;;;97.97;40.70;;;21.70;99.90;;;;;;5086404;28;20055;-72
2022/07/21 10:00:13;;;;;;;93.05;40.47;;;21.70;99.90;;;;;;5070665;28;20076;-73
2022/07/21 10:02:39;;;;;;;88.47;38.58;;;21.60;99.90;;;;;;5069633;28;20532;-75
2022/07/21 10:05:11;;;;;;;98.30;41.75;;;21.60;99.90;;;;;;5069976;28;20294;-72
2022/07/21 10:07:47;;;;;;;95.25;40.60;;;21.60;99.90;;;;;;5086208;28;20036;-73
2022/07/21 10:10:13;;;;;;;96.03;41.15;;;21.60;99.90;;;;;;5068856;28;20203;-73
2022/07/21 10:12:39;;;;;;;91.35;39.50;;;21.60;99.90;;;;;;5070248;28;20040;-69
2022/07/21 10:15:05;;;;;;;108.32;43.38;;;21.60;99.90;;;;;;5069883;28;20071;-76
2022/07/21 10:17:31;;;;;;;106.38;45.72;;;21.50;99.90;;;;;;5068985;28;20048;-73
2022/07/21 10:20:07;;;;;;;104.82;46.28;;;21.50;99.90;;;;;;5069695;28;20051;-72
2022/07/21 10:22:57;;;;;;;103.45;44.97;;;21.60;99.90;;;;;;5065729;28;20048;-71
2022/07/21 10:25:23;;;;;;;105.45;47.10;;;21.50;99.90;;;;;;5056409;28;20041;-72
2022/07/21 10:28:10;;;;;;;103.10;47.80;;;21.50;99.90;;;;;;5051340;28;20098;-70
2022/07/21 10:30:44;;;;;;;128.00;52.83;;;21.40;99.90;;;;;;5065916;28;20045;-75
2022/07/21 10:33:11;;;;;;;129.60;56.80;;;21.40;99.90;;;;;;5065170;28;20052;-71
2022/07/21 10:35:42;;;;;;;135.25;56.63;;;21.40;99.90;;;;;;5049602;28;20495;-71
2022/07/21 10:38:34;;;;;;;138.25;58.47;;;21.40;99.90;;;;;;5062571;28;20048;-75
2022/07/21 10:41:02;;;;;;;115.07;52.60;;;21.40;99.90;;;;;;5063162;28;20082;-74
2022/07/21 10:43:27;;;;;;;122.25;52.80;;;21.50;99.90;;;;;;5060493;28;20081;-75
2022/07/21 10:45:54;;;;;;;126.55;54.88;;;21.60;99.90;;;;;;5049100;28;20395;-72
2022/07/21 10:48:41;;;;;;;125.03;52.53;;;21.60;99.90;;;;;;5065006;28;20132;-75
2022/07/21 10:51:12;;;;;;;126.80;51.13;;;21.70;99.90;;;;;;5052175;28;20049;-75
2022/07/21 10:53:39;;;;;;;118.33;50.03;;;21.80;99.90;;;;;;5071760;28;20051;-74
2022/07/21 10:56:06;;;;;;;128.40;51.45;;;21.90;99.90;;;;;;5072404;28;20309;-70
2022/07/21 10:58:38;;;;;;;116.95;50.00;;;22.00;99.90;;;;;;5060525;28;20028;-74
2022/07/21 11:01:18;;;;;;;125.32;51.72;;;22.00;99.90;;;;;;5072320;28;20411;-76
2022/07/21 11:03:45;;;;;;;120.40;50.35;;;22.00;99.90;;;;;;5070203;28;20501;-78
2022/07/21 11:06:24;;;;;;;111.85;47.28;;;22.20;99.90;;;;;;5055362;28;20041;-76
2022/07/21 11:09:04;;;;;;;97.72;43.83;;;22.00;99.90;;;;;;5063190;28;20045;-78
2022/07/21 11:11:32;;;;;;;104.10;45.05;;;22.20;99.90;;;;;;5063371;28;20040;-76
2022/07/21 11:14:01;;;;;;;102.65;44.45;;;22.20;99.90;;;;;;5068269;28;20119;-78
2022/07/21 11:16:46;;;;;;;105.43;45.92;;;22.20;99.90;;;;;;5071425;28;20131;-76
2022/07/21 11:19:40;;;;;;;103.80;43.13;;;22.10;99.90;;;;;;5070230;28;20045;-77
2022/07/21 11:22:21;;;;;;;95.50;43.08;;;22.00;99.90;;;;;;5071807;28;20049;-75
2022/07/21 11:24:50;;;;;;;84.72;38.15;;;22.10;99.90;;;;;;5072041;28;20051;-75
2022/07/21 11:27:19;;;;;;;91.18;41.55;;;22.00;99.90;;;;;;5072457;28;20076;-76
2022/07/21 11:29:47;;;;;;;81.38;38.33;;;22.00;99.90;;;;;;5060101;28;20079;-73
2022/07/21 11:32:13;;;;;;;84.40;40.65;;;21.90;99.90;;;;;;5068662;28;20033;-77
2022/07/21 11:34:51;;;;;;;90.13;42.53;;;21.70;99.90;;;;;;5061827;28;20471;-75
2022/07/21 11:37:29;;;;;;;101.35;43.17;;;21.60;99.90;;;;;;5065364;28;20111;-75
2022/07/21 11:39:55;;;;;;;99.80;45.08;;;21.50;99.90;;;;;;5072084;28;20089;-74
2022/07/21 11:42:21;;;;;;;105.38;45.85;;;21.40;99.90;;;;;;5071571;28;20041;-75
2022/07/21 11:44:46;;;;;;;98.78;46.45;;;21.30;99.90;;;;;;5055394;28;20119;-73
2022/07/21 11:47:14;;;;;;;104.15;45.65;;;21.20;99.90;;;;;;5054605;28;20083;-75
2022/07/21 11:49:41;;;;;;;98.72;44.70;;;21.20;99.90;;;;;;5071946;28;20037;-73
2022/07/21 11:52:17;;;;;;;96.45;44.67;;;21.10;99.90;;;;;;5071383;28;20071;-76
2022/07/21 11:54:52;;;;;;;105.57;47.22;;;21.10;99.90;;;;;;5070813;28;20045;-76
2022/07/21 11:57:21;;;;;;;107.75;47.92;;;20.90;99.90;;;;;;5070914;28;20499;-75
2022/07/21 11:59:48;;;;;;;107.35;46.55;;;20.80;99.90;;;;;;5071243;28;20102;-76
2022/07/21 12:02:17;;;;;;;115.35;46.75;;;20.80;99.90;;;;;;5055606;28;20041;-71
2022/07/21 12:04:45;;;;;;;126.30;47.00;;;20.60;99.90;;;;;;5063273;28;20455;-72
2022/07/21 12:07:15;;;;;;;152.38;49.45;;;20.50;99.90;;;;;;5070468;28;20398;-71
2022/07/21 12:09:43;;;;;;;135.90;49.60;;;20.30;99.90;;;;;;5071022;28;20032;-73
2022/07/21 12:12:08;;;;;;;139.98;49.65;;;20.30;99.90;;;;;;5071270;28;20154;-75
2022/07/21 12:14:50;;;;;;;159.45;51.22;;;19.90;99.90;;;;;;5069082;28;20147;-71
2022/07/21 12:17:31;;;;;;;145.20;47.85;;;19.70;99.90;;;;;;5053853;28;20049;-69
2022/07/21 12:19:57;;;;;;;162.38;49.65;;;19.90;99.90;;;;;;5050993;28;20055;-69
2022/07/21 12:22:33;;;;;;;142.25;48.65;;;19.80;99.90;;;;;;5067355;28;20048;-68
2022/07/21 12:24:59;;;;;;;159.82;47.28;;;19.60;99.90;;;;;;5066810;28;20041;-68
2022/07/21 12:27:24;;;;;;;152.80;47.05;;;19.50;99.90;;;;;;5050158;28;20059;-69